sensor_id;sensor_type;location;lat;lon;timestamp;temperature;humidity
49503;DHT22;35409;48.776;9.204;2022-08-01T00:00:37;21.50;76.70
49503;DHT22;35409;48.776;9.204;2022-08-01T00:03:03;21.50;77.00
49503;DHT22;35409;48.776;9.204;2022-08-01T00:05:29;21.50;77.20
49503;DHT22;35409;48.776;9.204;2022-08-01T00:07:55;21.40;77.30
49503;DHT22;35409;48.776;9.204;2022-08-01T00:10:21;21.40;77.30
49503;DHT22;35409;48.776;9.204;2022-08-01T00:12:46;21.40;77.40
49503;DHT22;35409;48.776;9.204;2022-08-01T00:15:15;21.40;77.50
49503;DHT22;35409;48.776;9.204;2022-08-01T00:17:41;21.40;77.70
49503;DHT22;35409;48.776;9.204;2022-08-01T00:20:10;21.40;77.70
49503;DHT22;35409;48.776;9.204;2022-08-01T00:22:36;21.30;77.90
49503;DHT22;35409;48.776;9.204;2022-08-01T00:25:03;21.30;78.00
49503;DHT22;35409;48.776;9.204;2022-08-01T00:27:29;21.30;78.20
49503;DHT22;35409;48.776;9.204;2022-08-01T00:29:55;21.30;78.20
49503;DHT22;35409;48.776;9.204;2022-08-01T00:32:21;21.30;78.40
49503;DHT22;35409;48.776;9.204;2022-08-01T00:34:47;21.30;78.50
49503;DHT22;35409;48.776;9.204;2022-08-01T00:37:13;21.20;78.60
49503;DHT22;35409;48.776;9.204;2022-08-01T00:39:38;21.20;78.80
49503;DHT22;35409;48.776;9.204;2022-08-01T00:42:08;21.20;79.00
49503;DHT22;35409;48.776;9.204;2022-08-01T00:44:34;21.20;79.20
49503;DHT22;35409;48.776;9.204;2022-08-01T00:47:00;21.10;79.50
49503;DHT22;35409;48.776;9.204;2022-08-01T00:49:27;21.10;79.60
49503;DHT22;35409;48.776;9.204;2022-08-01T00:51:52;21.10;79.80
49503;DHT22;35409;48.776;9.204;2022-08-01T00:54:18;21.10;79.70
49503;DHT22;35409;48.776;9.204;2022-08-01T00:56:44;21.10;79.80
49503;DHT22;35409;48.776;9.204;2022-08-01T00:59:11;21.10;80.00
49503;DHT22;35409;48.776;9.204;2022-08-01T01:01:37;21.10;80.20
49503;DHT22;35409;48.776;9.204;2022-08-01T01:04:03;21.00;80.20
49503;DHT22;35409;48.776;9.204;2022-08-01T01:12:36;21.00;80.80
49503;DHT22;35409;48.776;9.204;2022-08-01T01:15:15;20.90;81.10
49503;DHT22;35409;48.776;9.204;2022-08-01T01:20:39;20.90;81.70
49503;DHT22;35409;48.776;9.204;2022-08-01T01:31:21;20.80;82.90
49503;DHT22;35409;48.776;9.204;2022-08-01T01:33:49;20.80;83.10
49503;DHT22;35409;48.776;9.204;2022-08-01T01:36:16;20.80;83.20
49503;DHT22;35409;48.776;9.204;2022-08-01T01:38:45;20.80;83.40
49503;DHT22;35409;48.776;9.204;2022-08-01T01:41:11;20.80;83.50
49503;DHT22;35409;48.776;9.204;2022-08-01T01:43:39;20.80;83.90
49503;DHT22;35409;48.776;9.204;2022-08-01T01:46:07;20.70;84.10
49503;DHT22;35409;48.776;9.204;2022-08-01T01:48:35;20.70;84.50
49503;DHT22;35409;48.776;9.204;2022-08-01T01:51:02;20.70;84.80
49503;DHT22;35409;48.776;9.204;2022-08-01T01:53:30;20.70;85.00
49503;DHT22;35409;48.776;9.204;2022-08-01T01:55:58;20.70;85.20
49503;DHT22;35409;48.776;9.204;2022-08-01T01:58:26;20.70;85.50
49503;DHT22;35409;48.776;9.204;2022-08-01T02:00:55;20.60;85.70
49503;DHT22;35409;48.776;9.204;2022-08-01T02:03:22;20.60;86.00
49503;DHT22;35409;48.776;9.204;2022-08-01T02:05:51;20.60;86.30
49503;DHT22;35409;48.776;9.204;2022-08-01T02:08:18;20.60;86.70
49503;DHT22;35409;48.776;9.204;2022-08-01T02:10:45;20.60;86.90
49503;DHT22;35409;48.776;9.204;2022-08-01T02:13:31;20.60;87.20
49503;DHT22;35409;48.776;9.204;2022-08-01T02:15:58;20.50;87.60
49503;DHT22;35409;48.776;9.204;2022-08-01T02:18:24;20.50;87.90
49503;DHT22;35409;48.776;9.204;2022-08-01T02:20:51;20.50;88.10
49503;DHT22;35409;48.776;9.204;2022-08-01T02:23:18;20.50;89.10
49503;DHT22;35409;48.776;9.204;2022-08-01T02:25:48;20.40;89.00
49503;DHT22;35409;48.776;9.204;2022-08-01T02:28:25;20.40;89.30
49503;DHT22;35409;48.776;9.204;2022-08-01T02:30:56;20.30;89.70
49503;DHT22;35409;48.776;9.204;2022-08-01T02:33:50;20.30;90.00
49503;DHT22;35409;48.776;9.204;2022-08-01T02:36:18;20.30;90.10
49503;DHT22;35409;48.776;9.204;2022-08-01T02:38:45;20.20;90.30
49503;DHT22;35409;48.776;9.204;2022-08-01T02:41:19;20.30;90.50
49503;DHT22;35409;48.776;9.204;2022-08-01T02:43:48;20.30;90.70
49503;DHT22;35409;48.776;9.204;2022-08-01T02:46:22;20.20;90.80
49503;DHT22;35409;48.776;9.204;2022-08-01T02:48:52;20.20;91.00
49503;DHT22;35409;48.776;9.204;2022-08-01T02:51:19;20.20;91.20
49503;DHT22;35409;48.776;9.204;2022-08-01T02:53:48;20.20;91.40
49503;DHT22;35409;48.776;9.204;2022-08-01T02:56:15;20.10;91.70
49503;DHT22;35409;48.776;9.204;2022-08-01T02:58:42;20.10;92.00
49503;DHT22;35409;48.776;9.204;2022-08-01T03:01:10;20.00;92.30
49503;DHT22;35409;48.776;9.204;2022-08-01T03:03:37;20.00;92.50
49503;DHT22;35409;48.776;9.204;2022-08-01T03:06:04;20.00;92.80
49503;DHT22;35409;48.776;9.204;2022-08-01T03:08:30;20.00;93.10
49503;DHT22;35409;48.776;9.204;2022-08-01T03:10:58;20.00;93.40
49503;DHT22;35409;48.776;9.204;2022-08-01T03:13:25;19.90;93.70
49503;DHT22;35409;48.776;9.204;2022-08-01T03:15:54;19.90;94.10
49503;DHT22;35409;48.776;9.204;2022-08-01T03:18:24;19.80;94.40
49503;DHT22;35409;48.776;9.204;2022-08-01T03:20:50;19.80;94.80
49503;DHT22;35409;48.776;9.204;2022-08-01T03:23:18;19.80;95.20
49503;DHT22;35409;48.776;9.204;2022-08-01T03:25:46;19.70;95.50
49503;DHT22;35409;48.776;9.204;2022-08-01T03:28:16;19.70;95.90
49503;DHT22;35409;48.776;9.204;2022-08-01T03:30:42;19.70;96.30
49503;DHT22;35409;48.776;9.204;2022-08-01T03:33:09;19.70;96.60
49503;DHT22;35409;48.776;9.204;2022-08-01T03:35:39;19.70;97.10
49503;DHT22;35409;48.776;9.204;2022-08-01T03:38:06;19.70;97.40
49503;DHT22;35409;48.776;9.204;2022-08-01T03:40:35;19.70;97.80
49503;DHT22;35409;48.776;9.204;2022-08-01T03:43:05;19.70;98.20
49503;DHT22;35409;48.776;9.204;2022-08-01T03:45:36;19.60;98.60
49503;DHT22;35409;48.776;9.204;2022-08-01T03:48:09;19.60;98.90
49503;DHT22;35409;48.776;9.204;2022-08-01T03:50:36;19.60;99.40
49503;DHT22;35409;48.776;9.204;2022-08-01T03:53:03;19.60;99.80
49503;DHT22;35409;48.776;9.204;2022-08-01T03:55:31;19.50;99.90
49503;DHT22;35409;48.776;9.204;2022-08-01T03:57:59;19.50;99.90
49503;DHT22;35409;48.776;9.204;2022-08-01T04:00:26;19.50;99.90
49503;DHT22;35409;48.776;9.204;2022-08-01T04:02:52;19.50;99.90
49503;DHT22;35409;48.776;9.204;2022-08-01T04:05:18;19.50;99.90
49503;DHT22;35409;48.776;9.204;2022-08-01T04:07:49;19.60;99.90
49503;DHT22;35409;48.776;9.204;2022-08-01T04:10:24;19.60;99.90
49503;DHT22;35409;48.776;9.204;2022-08-01T04:12:49;19.60;99.90
49503;DHT22;35409;48.776;9.204;2022-08-01T04:15:15;19.60;99.90
49503;DHT22;35409;48.776;9.204;2022-08-01T04:17:41;19.60;99.90
49503;DHT22;35409;48.776;9.204;2022-08-01T04:20:07;19.70;99.90
49503;DHT22;35409;48.776;9.204;2022-08-01T04:22:33;19.70;99.90
49503;DHT22;35409;48.776;9.204;2022-08-01T04:25:00;19.80;99.90
49503;DHT22;35409;48.776;9.204;2022-08-01T04:27:34;19.90;99.90
49503;DHT22;35409;48.776;9.204;2022-08-01T04:30:00;20.00;99.90
49503;DHT22;35409;48.776;9.204;2022-08-01T04:32:29;20.00;99.90
49503;DHT22;35409;48.776;9.204;2022-08-01T04:34:58;20.00;99.90
49503;DHT22;35409;48.776;9.204;2022-08-01T04:37:25;20.10;99.90
49503;DHT22;35409;48.776;9.204;2022-08-01T04:39:52;20.10;99.90
49503;DHT22;35409;48.776;9.204;2022-08-01T04:42:19;20.20;99.90
49503;DHT22;35409;48.776;9.204;2022-08-01T04:44:45;20.30;99.90
49503;DHT22;35409;48.776;9.204;2022-08-01T04:47:11;20.30;99.90
49503;DHT22;35409;48.776;9.204;2022-08-01T04:49:39;20.40;99.90
49503;DHT22;35409;48.776;9.204;2022-08-01T04:52:05;20.50;99.90
49503;DHT22;35409;48.776;9.204;2022-08-01T04:54:33;20.50;99.90
49503;DHT22;35409;48.776;9.204;2022-08-01T04:57:05;20.60;99.90
49503;DHT22;35409;48.776;9.204;2022-08-01T04:59:33;20.60;99.90
49503;DHT22;35409;48.776;9.204;2022-08-01T05:02:17;20.70;99.90
49503;DHT22;35409;48.776;9.204;2022-08-01T05:04:44;20.80;99.90
49503;DHT22;35409;48.776;9.204;2022-08-01T05:07:10;20.80;99.90
49503;DHT22;35409;48.776;9.204;2022-08-01T05:09:37;20.80;99.90
49503;DHT22;35409;48.776;9.204;2022-08-01T05:12:04;20.90;99.90
49503;DHT22;35409;48.776;9.204;2022-08-01T05:14:31;20.90;99.90
49503;DHT22;35409;48.776;9.204;2022-08-01T05:17:07;20.90;99.90
49503;DHT22;35409;48.776;9.204;2022-08-01T05:19:33;20.90;99.90
49503;DHT22;35409;48.776;9.204;2022-08-01T05:22:00;20.90;99.90
49503;DHT22;35409;48.776;9.204;2022-08-01T05:24:33;21.00;99.90
49503;DHT22;35409;48.776;9.204;2022-08-01T05:26:59;21.10;99.90
49503;DHT22;35409;48.776;9.204;2022-08-01T05:29:25;21.20;99.90
49503;DHT22;35409;48.776;9.204;2022-08-01T05:31:52;21.40;99.90
49503;DHT22;35409;48.776;9.204;2022-08-01T05:34:18;21.50;99.90
49503;DHT22;35409;48.776;9.204;2022-08-01T05:36:43;21.60;99.90
49503;DHT22;35409;48.776;9.204;2022-08-01T05:39:09;21.70;99.90
49503;DHT22;35409;48.776;9.204;2022-08-01T05:41:37;21.80;99.90
49503;DHT22;35409;48.776;9.204;2022-08-01T05:44:03;21.80;99.90
49503;DHT22;35409;48.776;9.204;2022-08-01T05:46:29;21.80;99.90
49503;DHT22;35409;48.776;9.204;2022-08-01T05:48:56;21.90;99.90
49503;DHT22;35409;48.776;9.204;2022-08-01T05:51:22;22.00;99.90
49503;DHT22;35409;48.776;9.204;2022-08-01T05:53:48;22.00;99.90
49503;DHT22;35409;48.776;9.204;2022-08-01T05:56:13;22.10;99.90
49503;DHT22;35409;48.776;9.204;2022-08-01T05:58:39;22.20;99.90
49503;DHT22;35409;48.776;9.204;2022-08-01T06:01:05;22.30;99.90
49503;DHT22;35409;48.776;9.204;2022-08-01T06:03:30;22.50;99.90
49503;DHT22;35409;48.776;9.204;2022-08-01T06:05:59;22.60;99.90
49503;DHT22;35409;48.776;9.204;2022-08-01T06:08:25;22.70;99.70
49503;DHT22;35409;48.776;9.204;2022-08-01T06:10:50;22.80;99.60
49503;DHT22;35409;48.776;9.204;2022-08-01T06:13:17;22.90;99.50
49503;DHT22;35409;48.776;9.204;2022-08-01T06:15:44;23.10;99.30
49503;DHT22;35409;48.776;9.204;2022-08-01T06:18:09;23.20;99.20
49503;DHT22;35409;48.776;9.204;2022-08-01T06:20:35;23.20;99.00
49503;DHT22;35409;48.776;9.204;2022-08-01T06:23:01;23.30;98.90
49503;DHT22;35409;48.776;9.204;2022-08-01T06:25:26;23.40;98.80
49503;DHT22;35409;48.776;9.204;2022-08-01T06:27:52;23.50;98.70
49503;DHT22;35409;48.776;9.204;2022-08-01T06:30:18;23.50;98.60
49503;DHT22;35409;48.776;9.204;2022-08-01T06:32:44;23.60;98.70
49503;DHT22;35409;48.776;9.204;2022-08-01T06:35:10;23.70;98.50
49503;DHT22;35409;48.776;9.204;2022-08-01T06:37:36;23.70;98.40
49503;DHT22;35409;48.776;9.204;2022-08-01T06:40:03;23.80;98.40
49503;DHT22;35409;48.776;9.204;2022-08-01T06:42:29;23.80;98.50
49503;DHT22;35409;48.776;9.204;2022-08-01T06:44:57;23.80;98.30
49503;DHT22;35409;48.776;9.204;2022-08-01T06:47:23;23.80;98.30
49503;DHT22;35409;48.776;9.204;2022-08-01T06:49:48;23.80;98.30
49503;DHT22;35409;48.776;9.204;2022-08-01T06:52:14;23.90;98.10
49503;DHT22;35409;48.776;9.204;2022-08-01T06:54:39;24.00;97.90
49503;DHT22;35409;48.776;9.204;2022-08-01T06:57:05;24.00;97.80
49503;DHT22;35409;48.776;9.204;2022-08-01T06:59:31;24.00;97.60
49503;DHT22;35409;48.776;9.204;2022-08-01T07:01:57;24.00;97.90
49503;DHT22;35409;48.776;9.204;2022-08-01T07:04:22;24.10;97.30
49503;DHT22;35409;48.776;9.204;2022-08-01T07:06:48;24.20;97.10
49503;DHT22;35409;48.776;9.204;2022-08-01T07:09:13;24.20;97.10
49503;DHT22;35409;48.776;9.204;2022-08-01T07:11:39;24.20;96.80
49503;DHT22;35409;48.776;9.204;2022-08-01T07:14:05;24.30;96.80
49503;DHT22;35409;48.776;9.204;2022-08-01T07:16:30;24.50;96.40
49503;DHT22;35409;48.776;9.204;2022-08-01T07:18:56;24.70;96.10
49503;DHT22;35409;48.776;9.204;2022-08-01T07:21:22;24.80;96.00
49503;DHT22;35409;48.776;9.204;2022-08-01T07:23:47;25.00;95.80
49503;DHT22;35409;48.776;9.204;2022-08-01T07:26:13;25.00;95.50
49503;DHT22;35409;48.776;9.204;2022-08-01T07:28:39;24.90;95.50
49503;DHT22;35409;48.776;9.204;2022-08-01T07:31:04;24.80;95.60
49503;DHT22;35409;48.776;9.204;2022-08-01T07:33:30;24.70;95.70
49503;DHT22;35409;48.776;9.204;2022-08-01T07:35:56;24.60;95.80
49503;DHT22;35409;48.776;9.204;2022-08-01T07:38:21;24.50;96.00
49503;DHT22;35409;48.776;9.204;2022-08-01T07:40:48;24.60;95.90
49503;DHT22;35409;48.776;9.204;2022-08-01T07:43:14;24.60;95.70
49503;DHT22;35409;48.776;9.204;2022-08-01T07:45:40;24.70;95.80
49503;DHT22;35409;48.776;9.204;2022-08-01T07:48:06;24.80;95.90
49503;DHT22;35409;48.776;9.204;2022-08-01T07:50:32;25.00;95.60
49503;DHT22;35409;48.776;9.204;2022-08-01T07:53:01;25.20;95.00
49503;DHT22;35409;48.776;9.204;2022-08-01T07:55:27;25.20;94.80
49503;DHT22;35409;48.776;9.204;2022-08-01T07:57:53;25.10;95.20
49503;DHT22;35409;48.776;9.204;2022-08-01T08:00:19;25.10;94.50
49503;DHT22;35409;48.776;9.204;2022-08-01T08:02:44;25.10;94.80
49503;DHT22;35409;48.776;9.204;2022-08-01T08:05:11;25.40;94.00
49503;DHT22;35409;48.776;9.204;2022-08-01T08:07:37;25.60;94.10
49503;DHT22;35409;48.776;9.204;2022-08-01T08:10:03;25.80;93.70
49503;DHT22;35409;48.776;9.204;2022-08-01T08:12:29;25.80;93.60
49503;DHT22;35409;48.776;9.204;2022-08-01T08:14:56;25.80;93.50
49503;DHT22;35409;48.776;9.204;2022-08-01T08:17:24;25.80;93.20
49503;DHT22;35409;48.776;9.204;2022-08-01T08:19:49;25.80;93.40
49503;DHT22;35409;48.776;9.204;2022-08-01T08:22:15;25.80;93.50
49503;DHT22;35409;48.776;9.204;2022-08-01T08:24:41;25.80;93.30
49503;DHT22;35409;48.776;9.204;2022-08-01T08:27:06;25.90;93.00
49503;DHT22;35409;48.776;9.204;2022-08-01T08:29:33;26.00;93.20
49503;DHT22;35409;48.776;9.204;2022-08-01T08:32:00;26.20;92.70
49503;DHT22;35409;48.776;9.204;2022-08-01T08:34:27;26.40;92.60
49503;DHT22;35409;48.776;9.204;2022-08-01T08:36:53;26.50;92.40
49503;DHT22;35409;48.776;9.204;2022-08-01T08:39:20;26.70;91.90
49503;DHT22;35409;48.776;9.204;2022-08-01T08:41:46;26.90;91.40
49503;DHT22;35409;48.776;9.204;2022-08-01T08:44:12;27.00;91.20
49503;DHT22;35409;48.776;9.204;2022-08-01T08:46:46;27.20;91.40
49503;DHT22;35409;48.776;9.204;2022-08-01T08:49:15;27.30;90.60
49503;DHT22;35409;48.776;9.204;2022-08-01T08:51:42;27.30;90.90
49503;DHT22;35409;48.776;9.204;2022-08-01T08:54:11;27.20;90.50
49503;DHT22;35409;48.776;9.204;2022-08-01T08:56:38;27.30;90.80
49503;DHT22;35409;48.776;9.204;2022-08-01T08:59:04;27.20;90.60
49503;DHT22;35409;48.776;9.204;2022-08-01T09:01:31;27.00;90.80
49503;DHT22;35409;48.776;9.204;2022-08-01T09:04:04;26.90;90.90
49503;DHT22;35409;48.776;9.204;2022-08-01T09:06:30;26.90;90.60
49503;DHT22;35409;48.776;9.204;2022-08-01T09:08:57;26.90;90.60
49503;DHT22;35409;48.776;9.204;2022-08-01T09:11:23;26.90;90.70
49503;DHT22;35409;48.776;9.204;2022-08-01T09:16:32;26.90;90.50
49503;DHT22;35409;48.776;9.204;2022-08-01T09:19:15;26.90;90.80
49503;DHT22;35409;48.776;9.204;2022-08-01T09:22:04;26.80;90.40
49503;DHT22;35409;48.776;9.204;2022-08-01T09:24:30;26.60;90.30
49503;DHT22;35409;48.776;9.204;2022-08-01T09:26:58;26.50;90.60
49503;DHT22;35409;48.776;9.204;2022-08-01T09:29:27;26.50;90.80
49503;DHT22;35409;48.776;9.204;2022-08-01T09:31:53;26.70;90.60
49503;DHT22;35409;48.776;9.204;2022-08-01T09:34:27;26.90;90.00
49503;DHT22;35409;48.776;9.204;2022-08-01T09:36:58;27.00;90.20
49503;DHT22;35409;48.776;9.204;2022-08-01T09:39:37;26.90;90.10
49503;DHT22;35409;48.776;9.204;2022-08-01T09:42:23;27.00;90.00
49503;DHT22;35409;48.776;9.204;2022-08-01T09:44:50;27.20;89.50
49503;DHT22;35409;48.776;9.204;2022-08-01T09:47:16;27.30;89.40
49503;DHT22;35409;48.776;9.204;2022-08-01T09:49:43;27.50;88.80
49503;DHT22;35409;48.776;9.204;2022-08-01T09:52:17;27.70;88.40
49503;DHT22;35409;48.776;9.204;2022-08-01T09:54:52;27.80;87.40
49503;DHT22;35409;48.776;9.204;2022-08-01T09:57:20;27.90;88.50
49503;DHT22;35409;48.776;9.204;2022-08-01T09:59:48;28.10;86.50
49503;DHT22;35409;48.776;9.204;2022-08-01T10:02:35;28.00;86.70
49503;DHT22;35409;48.776;9.204;2022-08-01T10:05:04;28.00;87.10
49503;DHT22;35409;48.776;9.204;2022-08-01T10:07:30;28.20;86.00
49503;DHT22;35409;48.776;9.204;2022-08-01T10:10:11;28.20;86.50
49503;DHT22;35409;48.776;9.204;2022-08-01T10:12:38;28.20;86.00
49503;DHT22;35409;48.776;9.204;2022-08-01T10:15:05;28.30;85.70
49503;DHT22;35409;48.776;9.204;2022-08-01T10:17:33;28.20;84.60
49503;DHT22;35409;48.776;9.204;2022-08-01T10:20:01;28.20;85.30
49503;DHT22;35409;48.776;9.204;2022-08-01T10:22:30;28.20;85.30
49503;DHT22;35409;48.776;9.204;2022-08-01T10:24:56;28.30;84.50
49503;DHT22;35409;48.776;9.204;2022-08-01T10:27:25;28.60;83.60
49503;DHT22;35409;48.776;9.204;2022-08-01T10:29:59;28.70;83.40
49503;DHT22;35409;48.776;9.204;2022-08-01T10:32:31;28.90;83.80
49503;DHT22;35409;48.776;9.204;2022-08-01T10:34:58;29.00;82.70
49503;DHT22;35409;48.776;9.204;2022-08-01T10:37:24;29.00;82.50
49503;DHT22;35409;48.776;9.204;2022-08-01T10:39:54;29.10;81.90
49503;DHT22;35409;48.776;9.204;2022-08-01T10:42:20;29.20;81.60
49503;DHT22;35409;48.776;9.204;2022-08-01T10:44:47;29.20;80.60
49503;DHT22;35409;48.776;9.204;2022-08-01T10:47:15;29.20;80.60
49503;DHT22;35409;48.776;9.204;2022-08-01T10:52:15;28.90;80.70
49503;DHT22;35409;48.776;9.204;2022-08-01T10:54:40;28.60;81.50
49503;DHT22;35409;48.776;9.204;2022-08-01T10:57:06;28.20;81.40
49503;DHT22;35409;48.776;9.204;2022-08-01T10:59:33;27.90;82.30
49503;DHT22;35409;48.776;9.204;2022-08-01T11:02:02;27.60;82.90
49503;DHT22;35409;48.776;9.204;2022-08-01T11:07:07;27.30;83.20
49503;DHT22;35409;48.776;9.204;2022-08-01T11:09:44;27.20;83.60
49503;DHT22;35409;48.776;9.204;2022-08-01T11:12:12;27.10;83.90
49503;DHT22;35409;48.776;9.204;2022-08-01T11:17:43;27.60;83.50
49503;DHT22;35409;48.776;9.204;2022-08-01T11:20:23;28.00;83.30
49503;DHT22;35409;48.776;9.204;2022-08-01T11:38:37;27.90;81.80
49503;DHT22;35409;48.776;9.204;2022-08-01T11:41:22;28.20;81.50
49503;DHT22;35409;48.776;9.204;2022-08-01T11:44:02;28.70;79.90
49503;DHT22;35409;48.776;9.204;2022-08-01T11:52:23;29.70;78.30
49503;DHT22;35409;48.776;9.204;2022-08-01T11:55:07;29.90;76.40
49503;DHT22;35409;48.776;9.204;2022-08-01T11:57:33;29.80;75.60
49503;DHT22;35409;48.776;9.204;2022-08-01T12:00:13;29.60;75.70
49503;DHT22;35409;48.776;9.204;2022-08-01T12:02:39;29.60;75.80
49503;DHT22;35409;48.776;9.204;2022-08-01T12:05:10;29.70;75.80
49503;DHT22;35409;48.776;9.204;2022-08-01T12:07:39;29.60;75.80
49503;DHT22;35409;48.776;9.204;2022-08-01T12:10:09;29.50;75.90
49503;DHT22;35409;48.776;9.204;2022-08-01T12:12:36;29.20;76.10
49503;DHT22;35409;48.776;9.204;2022-08-01T12:15:07;28.90;76.30
49503;DHT22;35409;48.776;9.204;2022-08-01T12:17:57;28.70;77.30
49503;DHT22;35409;48.776;9.204;2022-08-01T12:20:24;28.80;77.50
49503;DHT22;35409;48.776;9.204;2022-08-01T12:23:01;29.10;76.70
49503;DHT22;35409;48.776;9.204;2022-08-01T12:25:27;29.10;75.30
49503;DHT22;35409;48.776;9.204;2022-08-01T12:27:53;29.00;75.50
49503;DHT22;35409;48.776;9.204;2022-08-01T12:30:21;28.90;76.10
49503;DHT22;35409;48.776;9.204;2022-08-01T12:32:51;28.70;75.70
49503;DHT22;35409;48.776;9.204;2022-08-01T12:35:22;28.50;76.00
49503;DHT22;35409;48.776;9.204;2022-08-01T12:37:53;28.40;76.00
49503;DHT22;35409;48.776;9.204;2022-08-01T12:40:21;28.30;77.20
49503;DHT22;35409;48.776;9.204;2022-08-01T12:42:52;28.10;77.80
49503;DHT22;35409;48.776;9.204;2022-08-01T12:45:24;27.90;78.00
49503;DHT22;35409;48.776;9.204;2022-08-01T12:47:51;28.10;78.00
49503;DHT22;35409;48.776;9.204;2022-08-01T12:50:19;28.90;77.40
49503;DHT22;35409;48.776;9.204;2022-08-01T12:52:47;30.00;75.50
49503;DHT22;35409;48.776;9.204;2022-08-01T12:55:21;30.50;74.70
49503;DHT22;35409;48.776;9.204;2022-08-01T12:58:04;30.70;73.40
49503;DHT22;35409;48.776;9.204;2022-08-01T13:00:30;30.30;72.80
49503;DHT22;35409;48.776;9.204;2022-08-01T13:03:09;29.70;73.80
49503;DHT22;35409;48.776;9.204;2022-08-01T13:05:45;29.40;74.00
49503;DHT22;35409;48.776;9.204;2022-08-01T13:08:13;29.20;74.60
49503;DHT22;35409;48.776;9.204;2022-08-01T13:10:40;29.10;74.70
49503;DHT22;35409;48.776;9.204;2022-08-01T13:13:07;29.10;75.00
49503;DHT22;35409;48.776;9.204;2022-08-01T13:15:34;29.30;75.20
49503;DHT22;35409;48.776;9.204;2022-08-01T13:18:24;29.50;74.90
49503;DHT22;35409;48.776;9.204;2022-08-01T13:20:47;30.00;73.80
49503;DHT22;35409;48.776;9.204;2022-08-01T13:23:18;30.20;73.60
49503;DHT22;35409;48.776;9.204;2022-08-01T13:25:55;30.00;73.30
49503;DHT22;35409;48.776;9.204;2022-08-01T13:28:26;29.70;73.60
49503;DHT22;35409;48.776;9.204;2022-08-01T13:33:26;30.10;73.90
49503;DHT22;35409;48.776;9.204;2022-08-01T13:35:56;30.50;73.20
49503;DHT22;35409;48.776;9.204;2022-08-01T13:38:22;30.50;72.50
49503;DHT22;35409;48.776;9.204;2022-08-01T13:41:07;30.30;72.50
49503;DHT22;35409;48.776;9.204;2022-08-01T13:43:33;30.10;72.80
49503;DHT22;35409;48.776;9.204;2022-08-01T13:46:00;29.90;73.40
49503;DHT22;35409;48.776;9.204;2022-08-01T13:48:29;29.60;73.40
49503;DHT22;35409;48.776;9.204;2022-08-01T13:50:55;29.50;73.60
49503;DHT22;35409;48.776;9.204;2022-08-01T13:53:21;29.50;73.50
49503;DHT22;35409;48.776;9.204;2022-08-01T13:55:46;29.60;74.10
49503;DHT22;35409;48.776;9.204;2022-08-01T13:58:12;29.90;73.00
49503;DHT22;35409;48.776;9.204;2022-08-01T14:00:37;30.30;72.10
49503;DHT22;35409;48.776;9.204;2022-08-01T14:03:03;30.60;71.50
49503;DHT22;35409;48.776;9.204;2022-08-01T14:05:29;30.50;71.50
49503;DHT22;35409;48.776;9.204;2022-08-01T14:07:55;30.50;72.80
49503;DHT22;35409;48.776;9.204;2022-08-01T14:10:21;30.60;72.00
49503;DHT22;35409;48.776;9.204;2022-08-01T14:12:47;30.60;71.70
49503;DHT22;35409;48.776;9.204;2022-08-01T14:15:14;30.50;71.20
49503;DHT22;35409;48.776;9.204;2022-08-01T14:17:39;30.20;71.60
49503;DHT22;35409;48.776;9.204;2022-08-01T14:20:05;30.10;72.00
49503;DHT22;35409;48.776;9.204;2022-08-01T14:22:31;29.90;72.20
49503;DHT22;35409;48.776;9.204;2022-08-01T14:24:57;30.00;72.60
49503;DHT22;35409;48.776;9.204;2022-08-01T14:27:22;30.10;71.60
49503;DHT22;35409;48.776;9.204;2022-08-01T14:29:48;30.10;71.90
49503;DHT22;35409;48.776;9.204;2022-08-01T14:32:14;30.20;72.50
49503;DHT22;35409;48.776;9.204;2022-08-01T14:34:39;30.30;71.40
49503;DHT22;35409;48.776;9.204;2022-08-01T14:37:05;30.20;71.50
49503;DHT22;35409;48.776;9.204;2022-08-01T14:39:31;30.10;71.60
49503;DHT22;35409;48.776;9.204;2022-08-01T14:41:57;30.10;71.10
49503;DHT22;35409;48.776;9.204;2022-08-01T14:44:23;30.20;71.60
49503;DHT22;35409;48.776;9.204;2022-08-01T14:46:48;30.20;71.20
49503;DHT22;35409;48.776;9.204;2022-08-01T14:49:15;30.30;71.70
49503;DHT22;35409;48.776;9.204;2022-08-01T14:51:40;30.70;70.60
49503;DHT22;35409;48.776;9.204;2022-08-01T14:54:06;31.30;70.80
49503;DHT22;35409;48.776;9.204;2022-08-01T14:56:32;31.90;68.80
49503;DHT22;35409;48.776;9.204;2022-08-01T14:58:57;32.00;68.90
49503;DHT22;35409;48.776;9.204;2022-08-01T15:01:24;32.10;68.00
49503;DHT22;35409;48.776;9.204;2022-08-01T15:03:49;32.00;67.90
49503;DHT22;35409;48.776;9.204;2022-08-01T15:06:16;31.60;68.70
49503;DHT22;35409;48.776;9.204;2022-08-01T15:08:42;31.20;68.60
49503;DHT22;35409;48.776;9.204;2022-08-01T15:11:08;30.90;69.30
49503;DHT22;35409;48.776;9.204;2022-08-01T15:13:34;30.70;69.60
49503;DHT22;35409;48.776;9.204;2022-08-01T15:16:00;30.60;69.90
49503;DHT22;35409;48.776;9.204;2022-08-01T15:18:28;30.80;69.50
49503;DHT22;35409;48.776;9.204;2022-08-01T15:20:54;31.00;68.90
49503;DHT22;35409;48.776;9.204;2022-08-01T15:23:20;31.30;68.60
49503;DHT22;35409;48.776;9.204;2022-08-01T15:25:46;31.60;68.20
49503;DHT22;35409;48.776;9.204;2022-08-01T15:28:12;31.90;67.60
49503;DHT22;35409;48.776;9.204;2022-08-01T15:30:38;31.90;67.50
49503;DHT22;35409;48.776;9.204;2022-08-01T15:33:04;31.60;67.50
49503;DHT22;35409;48.776;9.204;2022-08-01T15:35:30;31.40;67.50
49503;DHT22;35409;48.776;9.204;2022-08-01T15:37:56;31.20;67.60
49503;DHT22;35409;48.776;9.204;2022-08-01T15:40:21;31.00;68.90
49503;DHT22;35409;48.776;9.204;2022-08-01T15:42:47;30.80;68.20
49503;DHT22;35409;48.776;9.204;2022-08-01T15:45:12;30.80;68.20
49503;DHT22;35409;48.776;9.204;2022-08-01T15:47:42;30.70;68.70
49503;DHT22;35409;48.776;9.204;2022-08-01T15:50:08;30.60;68.30
49503;DHT22;35409;48.776;9.204;2022-08-01T15:52:33;30.40;68.60
49503;DHT22;35409;48.776;9.204;2022-08-01T15:54:59;30.30;67.90
49503;DHT22;35409;48.776;9.204;2022-08-01T15:57:25;30.20;68.40
49503;DHT22;35409;48.776;9.204;2022-08-01T15:59:50;30.00;68.50
49503;DHT22;35409;48.776;9.204;2022-08-01T16:02:16;29.70;69.10
49503;DHT22;35409;48.776;9.204;2022-08-01T16:04:42;29.60;69.40
49503;DHT22;35409;48.776;9.204;2022-08-01T16:07:07;29.50;69.30
49503;DHT22;35409;48.776;9.204;2022-08-01T16:09:33;29.30;69.40
49503;DHT22;35409;48.776;9.204;2022-08-01T16:11:59;29.30;69.80
49503;DHT22;35409;48.776;9.204;2022-08-01T16:14:25;29.10;69.50
49503;DHT22;35409;48.776;9.204;2022-08-01T16:16:50;29.00;69.80
49503;DHT22;35409;48.776;9.204;2022-08-01T16:19:16;29.00;70.20
49503;DHT22;35409;48.776;9.204;2022-08-01T16:21:42;28.90;70.10
49503;DHT22;35409;48.776;9.204;2022-08-01T16:24:08;28.80;70.30
49503;DHT22;35409;48.776;9.204;2022-08-01T16:26:33;28.80;70.60